Portland, Oregon
Traffic Map
Current Weather Conditions
Portland, Oregon
Scattered Clouds
Scattered Clouds
21°
Feels Like: 21°
Wind Chill: 21° Ceiling: Unl
Heat Index: 21° Visibility: 10mi
Dew Point: 12° Wind: 3mph
Humidity: 57% Direction: 290° (WNW)
Pressure: 30.06in Gusts: 0mph
Raw Report DataKPDX 311453Z 29003KT 10SM SCT250 21/12 A3006 RMK AO2 SLP178 T02110122 53010
Traffic Incident Summary
Active as of:
Severity:
Category:
InformationThere was an issue retrieving the traffic information for this location. Please try a different location or try again shortly.
Advertisements
Track Severe Weather on mobile